createdAt,value
2023-09-01T00:01:24.942Z,11.86
2023-09-01T00:03:52.325Z,11.80
2023-09-01T00:06:18.901Z,11.80
2023-09-01T00:08:45.567Z,11.80
2023-09-01T00:11:12.505Z,11.80
2023-09-01T00:13:39.753Z,11.80
2023-09-01T00:16:09.409Z,11.80
2023-09-01T00:18:37.473Z,11.70
2023-09-01T00:21:04.420Z,11.70
2023-09-01T00:23:32.143Z,11.70
2023-09-01T00:26:00.985Z,11.70
2023-09-01T00:28:28.120Z,11.68
2023-09-01T00:30:58.522Z,11.60
2023-09-01T00:33:29.467Z,11.60
2023-09-01T00:35:58.637Z,11.60
2023-09-01T00:38:25.537Z,11.60
2023-09-01T00:40:52.416Z,11.54
2023-09-01T00:43:19.553Z,11.52
2023-09-01T00:45:46.162Z,11.50
2023-09-01T00:48:14.664Z,11.50
2023-09-01T00:50:42.486Z,11.50
2023-09-01T00:53:09.497Z,11.50
2023-09-01T00:55:36.917Z,11.50
2023-09-01T00:58:04.238Z,11.50
2023-09-01T01:00:32.747Z,11.48
2023-09-01T01:03:03.600Z,11.40
2023-09-01T01:06:13.701Z,11.40
2023-09-01T01:09:09.365Z,11.40
2023-09-01T01:12:06.452Z,11.40
2023-09-01T01:14:48.507Z,11.40
2023-09-01T01:17:21.911Z,11.40
2023-09-01T01:19:54.440Z,11.40
2023-09-01T01:23:15.384Z,11.38
2023-09-01T01:25:52.475Z,11.30
2023-09-01T01:28:23.126Z,11.30
2023-09-01T01:30:50.784Z,11.30
2023-09-01T01:33:46.486Z,11.32
2023-09-01T01:36:19.626Z,11.38
2023-09-01T01:38:57.622Z,11.34
2023-09-01T01:41:49.018Z,11.40
2023-09-01T01:44:21.364Z,11.40
2023-09-01T01:46:50.650Z,11.40
2023-09-01T01:49:17.273Z,11.40
2023-09-01T01:51:43.790Z,11.40
2023-09-01T01:54:10.442Z,11.40
2023-09-01T01:56:36.920Z,11.40
2023-09-01T01:59:05.411Z,11.40
2023-09-01T02:01:33.300Z,11.40
2023-09-01T02:04:00.143Z,11.40
2023-09-01T02:06:26.683Z,11.40
2023-09-01T02:08:53.201Z,11.40
2023-09-01T02:11:19.753Z,11.40
2023-09-01T02:13:46.375Z,11.40
2023-09-01T02:16:13.004Z,11.40
2023-09-01T02:18:40.845Z,11.40
2023-09-01T02:21:07.897Z,11.40
2023-09-01T02:23:34.548Z,11.40
2023-09-01T02:26:01.037Z,11.40
2023-09-01T02:28:27.917Z,11.40
2023-09-01T02:30:54.716Z,11.38
2023-09-01T02:33:21.274Z,11.40
2023-09-01T02:35:49.159Z,11.34
2023-09-01T02:38:16.390Z,11.30
2023-09-01T02:40:43.720Z,11.32
2023-09-01T02:43:10.264Z,11.40
2023-09-01T02:45:36.762Z,11.40
2023-09-01T02:48:03.864Z,11.40
2023-09-01T02:50:30.397Z,11.40
2023-09-01T02:52:57.472Z,11.40
2023-09-01T02:55:23.991Z,11.50
2023-09-01T02:57:50.569Z,11.50
2023-09-01T03:00:22.422Z,11.50
2023-09-01T03:02:51.040Z,11.50
2023-09-01T03:05:18.200Z,11.50
2023-09-01T03:07:45.137Z,11.50
2023-09-01T03:10:11.809Z,11.50
2023-09-01T03:12:40.192Z,11.60
2023-09-01T03:15:09.720Z,11.60
2023-09-01T03:17:36.280Z,11.64
2023-09-01T03:20:06.181Z,11.70
2023-09-01T03:22:33.676Z,11.70
2023-09-01T03:25:00.568Z,11.70
2023-09-01T03:27:27.085Z,11.70
2023-09-01T03:29:56.865Z,11.80
2023-09-01T03:32:23.569Z,11.80
2023-09-01T03:34:51.568Z,11.80
2023-09-01T03:37:18.261Z,11.80
2023-09-01T03:39:45.015Z,11.84
2023-09-01T03:42:11.650Z,11.82
2023-09-01T03:44:38.382Z,11.90
2023-09-01T03:47:05.013Z,11.90
2023-09-01T03:49:31.658Z,11.86
2023-09-01T03:51:59.298Z,11.88
2023-09-01T03:54:26.958Z,11.90
2023-09-01T03:56:53.799Z,11.86
2023-09-01T03:59:20.750Z,11.86
2023-09-01T04:01:48.503Z,11.90
2023-09-01T04:04:19.408Z,11.90
2023-09-01T04:06:46.108Z,11.90
2023-09-01T04:09:13.565Z,11.90
2023-09-01T04:11:40.341Z,11.90
2023-09-01T04:14:09.645Z,11.90
2023-09-01T04:16:36.130Z,11.90
2023-09-01T04:19:03.081Z,11.90
2023-09-01T04:21:29.812Z,12.00
2023-09-01T04:23:56.630Z,12.10
2023-09-01T04:26:23.269Z,12.14
2023-09-01T04:28:50.009Z,12.20
2023-09-01T04:31:30.766Z,12.20
2023-09-01T04:34:00.080Z,12.20
2023-09-01T04:36:37.148Z,12.20
2023-09-01T04:39:11.497Z,12.30
2023-09-01T04:41:41.690Z,12.40
2023-09-01T04:44:08.440Z,12.50
2023-09-01T04:46:35.072Z,12.50
2023-09-01T04:49:01.621Z,12.60
2023-09-01T04:51:28.165Z,12.68
2023-09-01T04:53:54.703Z,12.70
2023-09-01T04:56:21.373Z,12.80
2023-09-01T04:58:47.852Z,12.80
2023-09-01T05:01:14.703Z,12.90
2023-09-01T05:03:41.330Z,12.90
2023-09-01T05:06:11.013Z,13.00
2023-09-01T05:08:37.643Z,13.00
2023-09-01T05:11:04.353Z,13.06
2023-09-01T05:13:31.036Z,13.12
2023-09-01T05:15:57.745Z,13.18
2023-09-01T05:18:24.325Z,13.20
2023-09-01T05:20:50.950Z,13.20
2023-09-01T05:23:17.589Z,13.22
2023-09-01T05:25:44.149Z,13.20
2023-09-01T05:28:10.591Z,13.20
2023-09-01T05:30:40.230Z,13.28
2023-09-01T05:33:06.939Z,13.30
2023-09-01T05:35:33.665Z,13.40
2023-09-01T05:38:00.197Z,13.42
2023-09-01T05:40:26.792Z,13.44
2023-09-01T05:42:53.268Z,13.50
2023-09-01T05:45:19.750Z,13.60
2023-09-01T05:47:46.315Z,13.70
2023-09-01T05:50:13.035Z,13.80
2023-09-01T05:52:39.585Z,13.80
2023-09-01T05:55:06.659Z,13.80
2023-09-01T05:57:33.207Z,13.90
2023-09-01T06:00:00.209Z,14.00
2023-09-01T06:02:26.954Z,14.12
2023-09-01T06:04:53.573Z,14.16
2023-09-01T06:07:20.048Z,14.10
2023-09-01T06:10:06.042Z,14.10
2023-09-01T06:12:32.623Z,14.20
2023-09-01T06:14:59.107Z,14.30
2023-09-01T06:17:40.355Z,14.40
2023-09-01T06:20:15.911Z,14.40
2023-09-01T06:22:45.074Z,14.40
2023-09-01T06:25:11.592Z,14.44
2023-09-01T06:27:38.129Z,14.50
2023-09-01T06:30:06.728Z,14.60
2023-09-01T06:32:34.506Z,14.80
2023-09-01T06:35:01.404Z,14.80
2023-09-01T06:37:28.342Z,14.70
2023-09-01T06:39:55.717Z,14.70
2023-09-01T06:42:22.428Z,14.70
2023-09-01T06:44:49.270Z,14.50
2023-09-01T06:47:15.948Z,14.50
2023-09-01T06:49:42.402Z,14.68
2023-09-01T06:52:08.919Z,14.80
2023-09-01T06:54:35.377Z,14.82
2023-09-01T06:57:01.909Z,15.18
2023-09-01T06:59:28.348Z,15.30
2023-09-01T07:01:54.861Z,15.40
2023-09-01T07:04:21.461Z,15.40
2023-09-01T07:06:48.027Z,15.40
2023-09-01T07:09:14.528Z,15.22
2023-09-01T07:11:41.015Z,15.20
2023-09-01T07:14:07.493Z,15.18
2023-09-01T07:16:34.084Z,15.14
2023-09-01T07:19:00.517Z,15.06
2023-09-01T07:21:26.973Z,15.10
2023-09-01T07:23:53.526Z,15.10
2023-09-01T07:26:19.990Z,15.18
2023-09-01T07:28:46.583Z,15.20
2023-09-01T07:31:13.900Z,15.20
2023-09-01T07:33:43.710Z,15.30
2023-09-01T07:36:11.620Z,15.30
2023-09-01T07:38:38.780Z,15.10
2023-09-01T07:41:06.125Z,15.10
2023-09-01T07:43:32.665Z,15.10
2023-09-01T07:45:59.156Z,15.20
2023-09-01T07:48:25.941Z,15.30
2023-09-01T07:50:53.089Z,15.20
2023-09-01T07:53:19.591Z,15.20
2023-09-01T07:55:46.216Z,15.20
2023-09-01T07:58:13.215Z,15.10
2023-09-01T08:00:40.854Z,15.20
2023-09-01T08:03:11.264Z,15.40
2023-09-01T08:05:38.738Z,15.60
2023-09-01T08:08:06.826Z,15.50
2023-09-01T08:10:33.469Z,15.50
2023-09-01T08:13:00.102Z,15.50
2023-09-01T08:15:26.713Z,15.40
2023-09-01T08:17:53.887Z,15.34
2023-09-01T08:20:20.438Z,15.30
2023-09-01T08:22:46.974Z,15.26
2023-09-01T08:25:14.197Z,15.16
2023-09-01T08:27:40.841Z,15.20
2023-09-01T08:30:08.579Z,15.10
2023-09-01T08:32:35.333Z,15.10
2023-09-01T08:35:04.882Z,15.10
2023-09-01T08:37:31.417Z,15.10
2023-09-01T08:39:58.099Z,15.10
2023-09-01T08:42:26.548Z,15.10
2023-09-01T08:44:53.949Z,15.00
2023-09-01T08:47:23.095Z,15.08
2023-09-01T08:49:50.856Z,15.00
2023-09-01T08:52:20.612Z,14.92
2023-09-01T08:54:47.363Z,15.00
2023-09-01T08:57:13.942Z,15.00
2023-09-01T08:59:44.160Z,14.90
2023-09-01T09:02:10.869Z,14.80
2023-09-01T09:04:39.079Z,14.70
2023-09-01T09:07:17.426Z,14.70
2023-09-01T09:10:05.118Z,14.76
2023-09-01T09:12:38.167Z,14.70
2023-09-01T09:15:06.422Z,14.70
2023-09-01T09:17:45.700Z,14.70
2023-09-01T09:20:20.475Z,14.60
2023-09-01T09:22:57.391Z,14.60
2023-09-01T09:25:28.422Z,14.50
2023-09-01T09:28:00.120Z,14.50
2023-09-01T09:30:27.861Z,14.50
2023-09-01T09:33:07.855Z,14.50
2023-09-01T09:35:35.503Z,14.50
2023-09-01T09:38:03.374Z,14.44
2023-09-01T09:40:30.357Z,14.40
2023-09-01T09:43:01.870Z,14.30
2023-09-01T09:45:33.764Z,14.20
2023-09-01T09:48:07.697Z,14.10
2023-09-01T09:50:35.609Z,14.04
2023-09-01T09:53:06.883Z,14.00
2023-09-01T09:55:46.822Z,14.00
2023-09-01T09:58:17.290Z,13.90
2023-09-01T10:01:03.477Z,13.90
2023-09-01T10:03:30.523Z,13.88
2023-09-01T10:05:59.802Z,13.82
2023-09-01T10:08:29.896Z,13.80
2023-09-01T10:10:59.590Z,13.80
2023-09-01T10:13:27.117Z,13.80
2023-09-01T10:15:54.417Z,13.80
2023-09-01T10:18:21.910Z,13.80
2023-09-01T10:20:48.818Z,13.80
2023-09-01T10:23:15.360Z,13.80
2023-09-01T10:25:42.010Z,13.80
2023-09-01T10:28:12.533Z,13.80
2023-09-01T10:30:45.265Z,13.80
2023-09-01T10:33:27.272Z,13.80
2023-09-01T10:35:58.323Z,13.80
2023-09-01T10:38:38.598Z,13.80
2023-09-01T10:41:05.357Z,13.80
2023-09-01T10:43:37.853Z,13.80
2023-09-01T10:46:13.625Z,13.80
2023-09-01T10:48:55.145Z,13.80
2023-09-01T10:51:30.132Z,13.88
2023-09-01T10:54:01.206Z,13.90
2023-09-01T10:56:30.320Z,13.98
2023-09-01T10:59:00.316Z,14.00
2023-09-01T11:01:39.078Z,14.00
2023-09-01T11:04:25.844Z,14.08
2023-09-01T11:06:59.077Z,14.10
2023-09-01T11:09:35.106Z,14.20
2023-09-01T11:12:07.708Z,14.20
2023-09-01T11:14:36.880Z,14.30
2023-09-01T11:17:04.457Z,14.30
2023-09-01T11:19:47.343Z,14.30
2023-09-01T11:22:14.468Z,14.40
2023-09-01T11:24:45.959Z,14.40
2023-09-01T11:27:13.495Z,14.50
2023-09-01T11:29:40.288Z,14.52
2023-09-01T11:32:08.448Z,14.62
2023-09-01T11:34:39.600Z,14.72
2023-09-01T11:37:06.500Z,14.88
2023-09-01T11:39:33.290Z,15.00
2023-09-01T11:42:00.867Z,15.30
2023-09-01T11:44:27.375Z,15.50
2023-09-01T11:46:54.041Z,15.72
2023-09-01T11:49:20.706Z,16.00
2023-09-01T11:51:47.263Z,16.24
2023-09-01T11:54:14.003Z,16.40
2023-09-01T11:56:40.732Z,16.60
2023-09-01T11:59:07.400Z,16.60
2023-09-01T12:01:42.365Z,16.60
2023-09-01T12:04:10.431Z,16.52
2023-09-01T12:06:50.225Z,16.60
2023-09-01T12:09:19.702Z,16.60
2023-09-01T12:11:58.547Z,16.60
2023-09-01T12:14:28.848Z,16.78
2023-09-01T12:16:56.375Z,16.80
2023-09-01T12:19:26.098Z,16.90
2023-09-01T12:21:58.263Z,16.88
2023-09-01T12:24:25.008Z,16.96
2023-09-01T12:26:51.640Z,17.00
2023-09-01T12:29:19.001Z,17.04
2023-09-01T12:31:46.023Z,17.00
2023-09-01T12:34:12.869Z,17.10
2023-09-01T12:36:39.506Z,17.24
2023-09-01T12:39:05.942Z,17.40
2023-09-01T12:41:32.478Z,17.40
2023-09-01T12:43:59.184Z,17.30
2023-09-01T12:46:29.288Z,17.20
2023-09-01T12:48:55.935Z,17.10
2023-09-01T12:51:22.465Z,17.10
2023-09-01T12:53:52.915Z,17.00
2023-09-01T12:56:29.146Z,16.90
2023-09-01T12:58:55.942Z,16.90
2023-09-01T13:01:22.477Z,16.92
2023-09-01T13:03:49.056Z,16.82
2023-09-01T13:06:15.655Z,16.78
2023-09-01T13:08:42.403Z,16.52
2023-09-01T13:11:10.672Z,16.42
2023-09-01T13:13:39.156Z,16.30
2023-09-01T13:16:06.511Z,16.26
2023-09-01T13:18:34.018Z,16.30
2023-09-01T13:21:00.615Z,16.28
2023-09-01T13:23:27.221Z,16.22
2023-09-01T13:25:56.528Z,16.20
2023-09-01T13:28:23.313Z,16.10
2023-09-01T13:30:49.887Z,16.10
2023-09-01T13:33:16.737Z,16.00
2023-09-01T13:35:44.451Z,16.00
2023-09-01T13:38:11.130Z,16.08
2023-09-01T13:40:38.045Z,16.12
2023-09-01T13:43:04.655Z,16.20
2023-09-01T13:45:31.525Z,16.40
2023-09-01T13:47:58.188Z,16.74
2023-09-01T13:50:25.478Z,17.00
2023-09-01T13:52:52.820Z,17.20
2023-09-01T13:55:19.483Z,17.40
2023-09-01T13:57:47.286Z,17.50
2023-09-01T14:00:14.447Z,17.40
2023-09-01T14:02:43.048Z,17.30
2023-09-01T14:05:09.980Z,17.26
2023-09-01T14:07:36.590Z,17.24
2023-09-01T14:10:03.404Z,17.30
2023-09-01T14:12:30.000Z,17.20
2023-09-01T14:14:56.445Z,17.20
2023-09-01T14:17:22.932Z,17.30
2023-09-01T14:19:51.041Z,17.30
2023-09-01T14:22:17.563Z,17.30
2023-09-01T14:24:44.174Z,17.30
2023-09-01T14:27:10.888Z,17.30
2023-09-01T14:29:39.546Z,17.20
2023-09-01T14:32:06.105Z,17.18
2023-09-01T14:34:32.677Z,17.20
2023-09-01T14:36:59.248Z,17.30
2023-09-01T14:39:25.929Z,17.30
2023-09-01T14:41:53.343Z,17.30
2023-09-01T14:44:19.874Z,17.30
2023-09-01T14:46:46.430Z,17.40
2023-09-01T14:49:12.985Z,17.30
2023-09-01T14:51:39.432Z,17.20
2023-09-01T14:54:06.772Z,17.10
2023-09-01T14:56:33.480Z,17.10
2023-09-01T14:59:00.043Z,17.10
2023-09-01T15:01:26.850Z,17.08
2023-09-01T15:03:53.754Z,17.00
2023-09-01T15:06:20.432Z,17.00
2023-09-01T15:08:46.985Z,17.10
2023-09-01T15:11:13.634Z,17.20
2023-09-01T15:13:40.203Z,17.40
2023-09-01T15:16:06.858Z,17.60
2023-09-01T15:18:33.472Z,17.68
2023-09-01T15:21:08.601Z,17.70
2023-09-01T15:23:36.397Z,17.80
2023-09-01T15:26:04.008Z,17.78
2023-09-01T15:28:30.689Z,17.80
2023-09-01T15:30:57.429Z,18.00
2023-09-01T15:33:27.719Z,18.00
2023-09-01T15:35:59.045Z,17.90
2023-09-01T15:38:30.715Z,17.80
2023-09-01T15:40:59.427Z,17.70
2023-09-01T15:43:27.017Z,17.50
2023-09-01T15:46:00.720Z,17.40
2023-09-01T15:48:29.249Z,17.30
2023-09-01T15:51:00.706Z,17.20
2023-09-01T15:53:30.126Z,17.20
2023-09-01T15:56:01.442Z,17.10
2023-09-01T15:58:28.648Z,17.02
2023-09-01T16:01:09.824Z,17.00
2023-09-01T16:03:51.105Z,17.00
2023-09-01T16:06:21.802Z,16.90
2023-09-01T16:08:48.377Z,16.90
2023-09-01T16:11:14.975Z,16.84
2023-09-01T16:13:41.595Z,16.80
2023-09-01T16:16:08.468Z,16.80
2023-09-01T16:18:35.036Z,16.80
2023-09-01T16:21:04.546Z,16.80
2023-09-01T16:23:31.526Z,16.70
2023-09-01T16:25:58.840Z,16.72
2023-09-01T16:28:25.611Z,16.72
2023-09-01T16:30:52.987Z,16.80
2023-09-01T16:33:19.698Z,16.80
2023-09-01T16:35:58.175Z,16.80
2023-09-01T16:38:25.758Z,16.80
2023-09-01T16:40:53.237Z,16.80
2023-09-01T16:43:21.791Z,16.80
2023-09-01T16:45:49.961Z,16.80
2023-09-01T16:48:16.704Z,16.80
2023-09-01T16:50:45.673Z,16.80
2023-09-01T16:53:13.571Z,16.88
2023-09-01T16:55:46.151Z,16.90
2023-09-01T16:58:14.293Z,16.80
2023-09-01T17:00:41.218Z,16.76
2023-09-01T17:03:10.239Z,16.70
2023-09-01T17:05:37.229Z,16.60
2023-09-01T17:08:04.435Z,16.50
2023-09-01T17:10:32.660Z,16.50
2023-09-01T17:12:59.247Z,16.50
2023-09-01T17:15:25.789Z,16.40
2023-09-01T17:17:52.437Z,16.40
2023-09-01T17:20:20.316Z,16.40
2023-09-01T17:22:46.899Z,16.30
2023-09-01T17:25:15.141Z,16.30
2023-09-01T17:27:41.651Z,16.20
2023-09-01T17:30:10.117Z,16.20
2023-09-01T17:32:37.040Z,16.16
2023-09-01T17:35:04.461Z,16.10
2023-09-01T17:37:31.584Z,16.10
2023-09-01T17:40:00.299Z,16.02
2023-09-01T17:42:28.400Z,16.00
2023-09-01T17:44:55.078Z,15.94
2023-09-01T17:47:21.589Z,15.90
2023-09-01T17:49:49.424Z,15.90
2023-09-01T17:52:16.399Z,15.80
2023-09-01T17:54:42.963Z,15.80
2023-09-01T17:57:09.574Z,15.70
2023-09-01T17:59:36.158Z,15.70
2023-09-01T18:02:04.151Z,15.60
2023-09-01T18:04:32.684Z,15.60
2023-09-01T18:06:59.606Z,15.50
2023-09-01T18:09:29.280Z,15.50
2023-09-01T18:11:55.892Z,15.50
2023-09-01T18:14:23.160Z,15.40
2023-09-01T18:16:49.968Z,15.40
2023-09-01T18:19:17.792Z,15.40
2023-09-01T18:21:44.745Z,15.40
2023-09-01T18:24:19.286Z,15.30
2023-09-01T18:26:46.277Z,15.30
2023-09-01T18:29:22.410Z,15.30
2023-09-01T18:31:52.192Z,15.30
2023-09-01T18:34:20.396Z,15.30
2023-09-01T18:36:47.927Z,15.24
2023-09-01T18:39:15.060Z,15.22
2023-09-01T18:41:46.828Z,15.20
2023-09-01T18:44:13.717Z,15.28
2023-09-01T18:46:40.303Z,15.22
2023-09-01T18:49:11.116Z,15.20
2023-09-01T18:51:38.326Z,15.20
2023-09-01T18:54:35.800Z,15.20
2023-09-01T18:57:03.924Z,15.20
2023-09-01T18:59:30.968Z,15.20
2023-09-01T19:01:59.687Z,15.20
2023-09-01T19:04:26.521Z,15.20
2023-09-01T19:06:53.429Z,15.20
2023-09-01T19:09:23.302Z,15.20
2023-09-01T19:11:49.998Z,15.20
2023-09-01T19:14:20.245Z,15.20
2023-09-01T19:16:49.887Z,15.20
2023-09-01T19:19:18.534Z,15.20
2023-09-01T19:21:45.025Z,15.20
2023-09-01T19:24:12.241Z,15.20
2023-09-01T19:26:39.226Z,15.20
2023-09-01T19:29:13.630Z,15.20
2023-09-01T19:31:45.488Z,15.20
2023-09-01T19:34:14.111Z,15.20
2023-09-01T19:36:41.748Z,15.20
2023-09-01T19:39:11.051Z,15.20
2023-09-01T19:41:39.365Z,15.20
2023-09-01T19:44:11.974Z,15.20
2023-09-01T19:46:39.271Z,15.20
2023-09-01T19:49:13.028Z,15.20
2023-09-01T19:51:43.837Z,15.20
2023-09-01T19:54:21.344Z,15.20
2023-09-01T19:56:49.311Z,15.20
2023-09-01T19:59:18.056Z,15.20
2023-09-01T20:01:46.339Z,15.20
2023-09-01T20:04:15.996Z,15.20
2023-09-01T20:06:43.651Z,15.20
2023-09-01T20:09:16.112Z,15.10
2023-09-01T20:11:45.491Z,15.10
2023-09-01T20:14:16.571Z,15.10
2023-09-01T20:16:43.565Z,15.10
2023-09-01T20:19:23.422Z,15.10
2023-09-01T20:21:49.968Z,15.18
2023-09-01T20:24:17.130Z,15.10
2023-09-01T20:26:45.021Z,15.10
2023-09-01T20:29:11.794Z,15.10
2023-09-01T20:31:38.810Z,15.10
2023-09-01T20:34:08.380Z,15.10
2023-09-01T20:36:34.924Z,15.10
2023-09-01T20:39:01.519Z,15.10
2023-09-01T20:41:28.552Z,15.10
2023-09-01T20:43:55.346Z,15.10
2023-09-01T20:46:22.169Z,15.10
2023-09-01T20:48:48.914Z,15.08
2023-09-01T20:51:15.575Z,15.00
2023-09-01T20:53:42.834Z,15.02
2023-09-01T20:56:09.402Z,15.00
2023-09-01T20:58:35.975Z,15.02
2023-09-01T21:01:03.467Z,15.04
2023-09-01T21:03:30.037Z,15.02
2023-09-01T21:05:56.724Z,15.10
2023-09-01T21:08:23.652Z,15.08
2023-09-01T21:10:50.305Z,15.00
2023-09-01T21:13:17.258Z,15.04
2023-09-01T21:15:44.426Z,15.10
2023-09-01T21:18:11.749Z,15.10
2023-09-01T21:20:38.388Z,15.10
2023-09-01T21:23:04.915Z,15.10
2023-09-01T21:25:33.121Z,15.10
2023-09-01T21:27:59.700Z,15.10
2023-09-01T21:30:26.756Z,15.10
2023-09-01T21:32:53.501Z,15.10
2023-09-01T21:35:20.540Z,15.10
2023-09-01T21:37:47.178Z,15.10
2023-09-01T21:40:14.043Z,15.10
2023-09-01T21:42:40.720Z,15.10
2023-09-01T21:45:08.781Z,15.10
2023-09-01T21:47:35.907Z,15.10
2023-09-01T21:50:04.169Z,15.10
2023-09-01T21:52:30.787Z,15.10
2023-09-01T21:54:57.374Z,15.10
2023-09-01T21:57:23.960Z,15.10
2023-09-01T21:59:50.637Z,15.10
2023-09-01T22:02:17.285Z,15.00
2023-09-01T22:04:43.987Z,15.10
2023-09-01T22:07:10.479Z,15.10
2023-09-01T22:09:37.067Z,15.10
2023-09-01T22:12:04.967Z,15.10
2023-09-01T22:14:31.647Z,15.10
2023-09-01T22:16:59.201Z,15.20
2023-09-01T22:19:30.925Z,15.16
2023-09-01T22:21:59.023Z,15.10
2023-09-01T22:24:34.585Z,15.10
2023-09-01T22:27:01.583Z,15.10
2023-09-01T22:29:28.562Z,15.00
2023-09-01T22:31:58.365Z,15.00
2023-09-01T22:34:24.937Z,15.00
2023-09-01T22:36:51.550Z,15.00
2023-09-01T22:39:18.151Z,14.96
2023-09-01T22:41:44.731Z,14.90
2023-09-01T22:44:11.300Z,14.90
2023-09-01T22:46:37.849Z,14.90
2023-09-01T22:49:04.501Z,14.90
2023-09-01T22:51:31.174Z,14.90
2023-09-01T22:53:58.026Z,14.90
2023-09-01T22:56:24.717Z,14.90
2023-09-01T22:58:51.219Z,14.90
2023-09-01T23:01:17.857Z,14.90
2023-09-01T23:03:44.637Z,14.90
2023-09-01T23:06:11.314Z,14.90
2023-09-01T23:08:37.931Z,14.90
2023-09-01T23:11:04.455Z,14.90
2023-09-01T23:13:31.159Z,14.90
2023-09-01T23:15:57.862Z,14.90
2023-09-01T23:18:25.770Z,14.90
2023-09-01T23:20:58.820Z,14.90
2023-09-01T23:23:25.975Z,14.90
2023-09-01T23:25:52.430Z,14.88
2023-09-01T23:28:18.961Z,14.80
2023-09-01T23:30:46.076Z,14.80
2023-09-01T23:33:12.524Z,14.80
2023-09-01T23:35:39.022Z,14.80
2023-09-01T23:38:05.641Z,14.80
2023-09-01T23:40:33.777Z,14.80
2023-09-01T23:43:00.339Z,14.80
2023-09-01T23:45:26.853Z,14.78
2023-09-01T23:47:55.095Z,14.74
2023-09-01T23:50:21.821Z,14.70
2023-09-01T23:52:48.342Z,14.72
2023-09-01T23:55:14.923Z,14.70
2023-09-01T23:57:41.678Z,14.70
